Time;durP1;ratioP1;P1;durP2;ratioP2;P2;SDS_P1;SDS_P2;PMS_P1;PMS_P2;Temp;Humidity;BMP_temperature;BMP_pressure;BME280_temperature;BME280_humidity;BME280_pressure;Samples;Min_cycle;Max_cycle;Signal;HPM_P1;HPM_P2
2023/12/17 00:01:01;;;;;;;26.92;12.75;;;10.30;99.90;;;;;;4903149;28;88542;-77
2023/12/17 00:03:27;;;;;;;30.95;14.10;;;10.20;99.90;;;;;;4899688;28;91155;-79
2023/12/17 00:05:53;;;;;;;28.25;13.60;;;10.20;99.90;;;;;;4897003;28;88593;-77
2023/12/17 00:08:20;;;;;;;38.85;15.77;;;10.10;99.90;;;;;;4898882;28;87872;-77
2023/12/17 00:10:49;;;;;;;35.22;14.38;;;9.90;99.90;;;;;;4896393;28;91643;-80
2023/12/17 00:13:15;;;;;;;40.03;14.85;;;9.90;99.90;;;;;;4899980;28;87825;-77
2023/12/17 00:15:41;;;;;;;36.55;14.77;;;9.80;99.90;;;;;;4900759;28;87923;-78
2023/12/17 00:18:07;;;;;;;40.85;16.20;;;9.70;99.90;;;;;;4900240;28;90403;-79
2023/12/17 00:20:33;;;;;;;44.13;16.23;;;9.60;99.90;;;;;;4900588;28;87642;-78
2023/12/17 00:22:59;;;;;;;31.85;15.55;;;9.60;99.90;;;;;;4901465;28;87544;-78
2023/12/17 00:25:24;;;;;;;36.58;15.73;;;9.60;99.90;;;;;;4899300;28;87710;-76
2023/12/17 00:27:50;;;;;;;45.47;17.65;;;9.60;99.90;;;;;;4899103;28;88046;-77
2023/12/17 00:30:16;;;;;;;38.65;16.33;;;9.50;99.90;;;;;;4895274;28;92433;-79
2023/12/17 00:32:42;;;;;;;35.92;15.73;;;9.50;99.90;;;;;;4901719;28;89276;-77
2023/12/17 00:35:07;;;;;;;31.38;15.75;;;9.50;99.90;;;;;;4899772;28;87740;-77
2023/12/17 00:37:33;;;;;;;37.67;14.90;;;9.50;99.90;;;;;;4900856;28;87351;-80
2023/12/17 00:39:59;;;;;;;38.65;15.20;;;9.50;99.90;;;;;;4899245;28;88135;-76
2023/12/17 00:42:24;;;;;;;37.58;16.45;;;9.50;99.90;;;;;;4900413;28;88155;-76
2023/12/17 00:44:50;;;;;;;30.73;14.98;;;9.50;99.90;;;;;;4902540;28;87420;-78
2023/12/17 00:47:16;;;;;;;33.85;15.38;;;9.50;99.90;;;;;;4912991;28;91943;-81
2023/12/17 00:49:41;;;;;;;32.35;15.77;;;9.50;99.90;;;;;;4896836;28;87622;-78
2023/12/17 00:52:07;;;;;;;35.53;15.30;;;9.50;99.90;;;;;;4896100;28;88768;-77
2023/12/17 00:54:32;;;;;;;35.40;16.23;;;9.40;99.90;;;;;;4894942;28;88978;-77
2023/12/17 00:56:58;;;;;;;36.67;15.40;;;9.40;99.90;;;;;;4898284;28;87799;-79
2023/12/17 00:59:24;;;;;;;32.92;15.77;;;9.40;99.90;;;;;;4896387;28;91855;-78
2023/12/17 01:01:51;;;;;;;30.67;15.30;;;9.40;99.90;;;;;;4895178;28;89614;-77
2023/12/17 01:04:17;;;;;;;40.47;16.15;;;9.30;99.90;;;;;;4896145;28;87726;-77
2023/12/17 01:06:42;;;;;;;39.00;16.08;;;9.40;99.90;;;;;;4896280;28;89864;-77
2023/12/17 01:09:11;;;;;;;36.05;15.55;;;9.30;99.90;;;;;;4895642;28;88327;-77
2023/12/17 01:11:37;;;;;;;34.38;15.80;;;9.30;99.90;;;;;;4897932;28;90943;-78
2023/12/17 01:14:03;;;;;;;31.35;15.38;;;9.30;99.90;;;;;;4897932;28;87887;-77
2023/12/17 01:16:30;;;;;;;33.13;15.65;;;9.40;99.90;;;;;;4897069;28;87797;-79
2023/12/17 01:18:55;;;;;;;35.17;15.88;;;9.40;99.90;;;;;;4895234;28;89763;-77
2023/12/17 01:21:21;;;;;;;44.13;18.42;;;9.40;99.90;;;;;;4892588;28;92208;-80
2023/12/17 01:23:47;;;;;;;35.88;16.38;;;9.40;99.90;;;;;;4894719;28;87627;-80
2023/12/17 01:26:20;;;;;;;34.67;16.10;;;9.40;99.90;;;;;;4914344;28;89841;-78
2023/12/17 01:28:46;;;;;;;;;;;9.50;99.90;;;;;;4896325;28;88277;-79
2023/12/17 01:31:12;;;;;;;32.85;15.15;;;9.50;99.90;;;;;;4895473;28;91012;-77
2023/12/17 01:33:38;;;;;;;35.65;16.13;;;9.40;99.90;;;;;;4896008;28;87877;-81
2023/12/17 01:36:03;;;;;;;35.00;16.63;;;9.40;99.90;;;;;;4912771;28;91861;-78
2023/12/17 01:38:29;;;;;;;41.13;17.73;;;9.50;99.90;;;;;;4897457;28;88019;-80
2023/12/17 01:40:55;;;;;;;36.30;16.67;;;9.40;99.90;;;;;;4896931;28;87985;-78
2023/12/17 01:43:20;;;;;;;37.38;17.15;;;9.50;99.90;;;;;;4894479;28;88494;-77
2023/12/17 01:45:47;;;;;;;38.03;16.52;;;9.50;99.90;;;;;;4896172;28;88538;-79
2023/12/17 01:48:12;;;;;;;36.83;17.45;;;9.50;99.90;;;;;;4896302;28;89169;-77
2023/12/17 01:50:38;;;;;;;41.65;17.55;;;9.40;99.90;;;;;;4897777;28;88288;-81
2023/12/17 01:53:04;;;;;;;40.47;18.10;;;9.40;99.90;;;;;;4895669;28;88442;-78
2023/12/17 01:55:30;;;;;;;39.13;16.65;;;9.40;99.90;;;;;;4915320;28;90461;-78
2023/12/17 01:57:57;;;;;;;38.20;17.38;;;9.40;99.90;;;;;;4912204;28;90647;-78
2023/12/17 02:00:24;;;;;;;42.38;18.50;;;9.40;99.90;;;;;;4897411;28;88373;-77
2023/12/17 02:02:50;;;;;;;49.65;20.38;;;9.40;99.90;;;;;;4897409;28;88090;-79
2023/12/17 02:05:16;;;;;;;46.75;19.20;;;9.30;99.90;;;;;;4899221;28;88412;-77
2023/12/17 02:07:42;;;;;;;53.30;21.00;;;9.30;99.90;;;;;;4893911;28;92222;-78
2023/12/17 02:10:08;;;;;;;55.28;22.00;;;9.30;99.90;;;;;;4897645;28;88364;-77
2023/12/17 02:12:34;;;;;;;52.22;22.13;;;9.30;99.90;;;;;;4897924;28;87248;-78
2023/12/17 02:14:59;;;;;;;53.90;22.00;;;9.20;99.90;;;;;;4895197;28;88201;-78
2023/12/17 02:17:30;;;;;;;59.45;22.85;;;9.20;99.90;;;;;;4895242;28;87873;-80
2023/12/17 02:19:56;;;;;;;50.13;21.20;;;9.10;99.90;;;;;;4897210;28;88027;-78
2023/12/17 02:22:23;;;;;;;52.35;22.40;;;9.10;99.90;;;;;;4892686;28;88267;-79
2023/12/17 02:24:52;;;;;;;48.83;21.83;;;9.00;99.90;;;;;;4893597;28;90304;-78
2023/12/17 02:27:23;;;;;;;48.92;21.75;;;9.00;99.90;;;;;;4910874;28;90571;-77
2023/12/17 02:29:50;;;;;;;58.58;21.65;;;8.90;99.90;;;;;;4893245;28;89015;-78
2023/12/17 02:32:17;;;;;;;52.35;21.95;;;8.80;99.90;;;;;;4912200;28;88589;-77
2023/12/17 02:34:42;;;;;;;62.00;21.63;;;8.90;99.90;;;;;;4894705;28;89471;-79
2023/12/17 02:37:08;;;;;;;46.97;19.92;;;8.90;99.90;;;;;;4895390;28;88601;-78
2023/12/17 02:39:34;;;;;;;58.42;22.13;;;8.80;99.90;;;;;;4896701;28;87713;-77
2023/12/17 02:41:59;;;;;;;43.10;18.52;;;8.80;99.90;;;;;;4897385;28;87211;-77
2023/12/17 02:44:25;;;;;;;47.78;19.63;;;8.80;99.90;;;;;;4897130;28;87326;-77
2023/12/17 02:46:51;;;;;;;45.83;19.55;;;8.80;99.90;;;;;;4895809;28;88682;-77
2023/12/17 02:49:17;;;;;;;48.88;20.30;;;8.90;99.90;;;;;;4893454;28;91154;-78
2023/12/17 02:51:45;;;;;;;47.80;18.58;;;8.90;99.90;;;;;;4892640;28;87813;-81
2023/12/17 02:54:11;;;;;;;48.22;18.23;;;8.90;99.90;;;;;;4909334;28;91410;-78
2023/12/17 02:56:42;;;;;;;47.70;19.58;;;8.80;99.90;;;;;;4897072;28;88794;-77
2023/12/17 02:59:10;;;;;;;39.85;17.27;;;8.80;99.90;;;;;;4895261;28;94111;-77
2023/12/17 03:01:36;;;;;;;38.38;18.92;;;8.80;99.90;;;;;;4897601;28;87743;-79
2023/12/17 03:04:05;;;;;;;36.75;17.65;;;8.80;99.90;;;;;;4898020;28;87757;-77
2023/12/17 03:06:31;;;;;;;43.20;16.55;;;8.80;99.90;;;;;;4895261;28;89710;-77
2023/12/17 03:08:56;;;;;;;41.05;16.80;;;8.80;99.90;;;;;;4893144;28;89030;-81
2023/12/17 03:11:22;;;;;;;40.33;16.33;;;8.80;99.90;;;;;;4897610;28;88068;-80
2023/12/17 03:13:48;;;;;;;37.28;16.35;;;8.80;99.90;;;;;;4893588;28;87316;-77
2023/12/17 03:16:13;;;;;;;43.80;16.98;;;8.80;99.90;;;;;;4894813;28;89273;-77
2023/12/17 03:18:39;;;;;;;41.83;18.48;;;8.80;99.90;;;;;;4894084;28;88374;-80
2023/12/17 03:21:07;;;;;;;40.95;17.55;;;8.80;99.90;;;;;;4894613;28;88423;-78
2023/12/17 03:23:36;;;;;;;49.72;18.20;;;8.70;99.90;;;;;;4897551;28;88047;-77
2023/12/17 03:26:03;;;;;;;43.38;18.08;;;8.80;99.90;;;;;;4895813;28;88474;-79
2023/12/17 03:28:29;;;;;;;40.05;17.40;;;8.80;99.90;;;;;;4895340;28;88021;-78
2023/12/17 03:30:54;;;;;;;37.88;17.02;;;8.70;99.90;;;;;;4892889;28;87876;-79
2023/12/17 03:33:20;;;;;;;42.15;17.02;;;8.70;99.90;;;;;;4895323;28;88109;-77
2023/12/17 03:35:48;;;;;;;35.10;16.15;;;8.70;99.90;;;;;;4898814;28;88590;-77
2023/12/17 03:38:14;;;;;;;39.00;16.25;;;8.70;99.90;;;;;;4897316;28;91008;-78
2023/12/17 03:40:40;;;;;;;36.47;17.15;;;8.80;99.90;;;;;;4914763;28;88478;-79
2023/12/17 03:43:06;;;;;;;38.38;16.45;;;8.80;99.90;;;;;;4896519;28;87586;-77
2023/12/17 03:45:33;;;;;;;39.85;16.52;;;8.70;99.90;;;;;;4893696;28;89770;-76
2023/12/17 03:48:00;;;;;;;33.22;14.27;;;8.70;99.90;;;;;;4897902;28;88470;-77
2023/12/17 03:50:25;;;;;;;35.63;14.85;;;8.70;99.90;;;;;;4899542;28;87702;-77
2023/12/17 03:52:51;;;;;;;34.80;15.07;;;8.70;99.90;;;;;;4897442;28;90019;-78
2023/12/17 03:55:17;;;;;;;27.92;13.05;;;8.70;99.90;;;;;;4898490;28;95475;-77
2023/12/17 03:57:45;;;;;;;29.20;13.30;;;8.80;99.90;;;;;;4896510;28;91094;-78
2023/12/17 04:00:12;;;;;;;29.88;12.63;;;8.80;99.90;;;;;;4898496;28;87843;-79
2023/12/17 04:02:37;;;;;;;24.60;12.85;;;8.80;99.90;;;;;;4899391;28;90006;-79
2023/12/17 04:05:04;;;;;;;26.83;12.20;;;8.70;99.90;;;;;;4899058;28;88399;-79
2023/12/17 04:07:30;;;;;;;23.63;12.00;;;8.70;99.90;;;;;;4898558;28;89572;-78
2023/12/17 04:10:03;;;;;;;26.35;11.25;;;8.80;99.90;;;;;;4898947;28;89293;-78
2023/12/17 04:12:29;;;;;;;23.92;10.77;;;8.80;99.90;;;;;;4905350;28;91189;-77
2023/12/17 04:14:54;;;;;;;25.23;11.50;;;8.90;99.90;;;;;;4897062;28;90782;-77
2023/12/17 04:17:20;;;;;;;25.58;11.15;;;8.80;99.90;;;;;;4895732;28;88475;-78
2023/12/17 04:19:46;;;;;;;25.83;10.63;;;8.80;99.90;;;;;;4897456;28;87762;-81
2023/12/17 04:22:12;;;;;;;20.98;10.45;;;8.80;99.90;;;;;;4897673;28;88315;-78
2023/12/17 04:24:38;;;;;;;23.80;11.02;;;8.80;99.90;;;;;;4897887;28;89114;-77
2023/12/17 04:27:04;;;;;;;21.65;10.35;;;8.80;99.90;;;;;;4897609;28;91082;-79
2023/12/17 04:29:30;;;;;;;24.38;11.32;;;8.90;99.90;;;;;;4894907;28;87818;-79
2023/12/17 04:31:55;;;;;;;24.15;10.80;;;8.90;99.90;;;;;;4900281;28;87398;-78
2023/12/17 04:34:21;;;;;;;25.85;11.45;;;9.00;99.90;;;;;;4894356;28;90559;-77
2023/12/17 04:36:47;;;;;;;23.30;10.98;;;8.90;99.90;;;;;;4897949;28;88863;-79
2023/12/17 04:39:13;;;;;;;23.23;11.18;;;8.90;99.90;;;;;;4895920;28;87887;-77
2023/12/17 04:41:39;;;;;;;24.30;11.18;;;9.00;99.90;;;;;;4897154;28;88070;-78
2023/12/17 04:44:05;;;;;;;33.08;11.60;;;9.00;99.90;;;;;;4896962;28;87857;-80
2023/12/17 04:46:31;;;;;;;30.42;13.10;;;9.00;99.90;;;;;;4896329;28;87932;-78
2023/12/17 04:48:56;;;;;;;30.48;13.60;;;9.00;99.90;;;;;;4896271;28;87872;-78
2023/12/17 04:51:22;;;;;;;28.73;13.38;;;9.00;99.90;;;;;;4897647;28;94215;-78
2023/12/17 04:53:49;;;;;;;29.40;13.43;;;9.00;99.90;;;;;;4897184;28;88673;-80
2023/12/17 04:56:16;;;;;;;32.97;13.50;;;9.10;99.90;;;;;;4898207;28;87875;-78
2023/12/17 04:58:41;;;;;;;27.45;14.13;;;9.10;99.90;;;;;;4897700;28;88390;-78
2023/12/17 05:01:07;;;;;;;31.05;13.13;;;9.10;99.90;;;;;;4899855;28;88430;-78
2023/12/17 05:03:33;;;;;;;30.65;13.80;;;9.10;99.90;;;;;;4898499;28;89251;-81
2023/12/17 05:05:59;;;;;;;33.75;13.77;;;9.10;99.90;;;;;;4913981;28;91303;-77
2023/12/17 05:08:24;;;;;;;27.20;13.68;;;9.10;99.90;;;;;;4898303;28;87585;-80
2023/12/17 05:10:50;;;;;;;33.95;14.35;;;9.10;99.90;;;;;;4897431;28;90612;-77
2023/12/17 05:13:16;;;;;;;31.23;14.27;;;9.10;99.90;;;;;;4897341;28;88664;-80
2023/12/17 05:15:42;;;;;;;33.15;14.25;;;9.10;99.90;;;;;;4894622;28;89866;-78
2023/12/17 05:18:07;;;;;;;32.72;14.90;;;9.00;99.90;;;;;;4898078;28;87505;-78
2023/12/17 05:20:33;;;;;;;40.33;14.15;;;9.00;99.90;;;;;;4897129;28;88521;-78
2023/12/17 05:22:59;;;;;;;33.67;13.98;;;8.90;99.90;;;;;;4896453;28;92751;-78
2023/12/17 05:25:24;;;;;;;32.33;14.50;;;8.90;99.90;;;;;;4896529;28;88834;-77
2023/12/17 05:27:50;;;;;;;27.67;13.38;;;8.80;99.90;;;;;;4897139;28;87897;-78
2023/12/17 05:30:16;;;;;;;27.70;14.02;;;8.80;99.90;;;;;;4911033;28;90157;-78
2023/12/17 05:32:42;;;;;;;27.05;13.20;;;8.70;99.90;;;;;;4898817;28;91689;-81
2023/12/17 05:35:07;;;;;;;26.92;12.98;;;8.80;99.90;;;;;;4900115;28;88074;-79
2023/12/17 05:37:33;;;;;;;30.38;13.10;;;8.80;99.90;;;;;;4900273;28;87993;-77
2023/12/17 05:39:59;;;;;;;29.75;13.60;;;8.80;99.90;;;;;;4898251;28;86683;-78
2023/12/17 05:42:24;;;;;;;29.35;13.15;;;8.80;99.90;;;;;;4895949;28;89307;-78
2023/12/17 05:44:50;;;;;;;23.88;11.32;;;8.80;99.90;;;;;;4899454;28;87606;-79
2023/12/17 05:47:17;;;;;;;27.50;11.48;;;8.80;99.90;;;;;;4895206;28;88854;-78
2023/12/17 05:49:42;;;;;;;23.15;11.45;;;8.80;99.90;;;;;;4894914;28;89477;-80
2023/12/17 05:52:10;;;;;;;23.52;12.38;;;8.80;99.90;;;;;;4912352;28;91828;-78
2023/12/17 05:54:38;;;;;;;31.23;14.07;;;8.80;99.90;;;;;;4896955;28;88261;-79
2023/12/17 05:57:04;;;;;;;30.52;14.20;;;8.70;99.90;;;;;;4896628;28;88079;-80
2023/12/17 05:59:30;;;;;;;35.70;15.68;;;8.70;99.90;;;;;;4897411;28;87751;-78
2023/12/17 06:01:58;;;;;;;38.10;15.80;;;8.70;99.90;;;;;;4896869;28;88388;-77
2023/12/17 06:04:24;;;;;;;38.72;17.15;;;8.70;99.90;;;;;;4896495;28;89032;-78
2023/12/17 06:06:50;;;;;;;43.90;18.60;;;8.60;99.90;;;;;;4897846;28;87952;-78
2023/12/17 06:09:17;;;;;;;45.25;18.95;;;8.60;99.90;;;;;;4910294;28;89609;-78
2023/12/17 06:11:42;;;;;;;46.40;19.48;;;8.60;99.90;;;;;;4896149;28;91383;-79
2023/12/17 06:14:08;;;;;;;44.78;19.52;;;8.60;99.90;;;;;;4894892;28;91070;-79
2023/12/17 06:16:39;;;;;;;54.78;22.15;;;8.60;99.90;;;;;;4896110;28;87849;-78
2023/12/17 06:19:05;;;;;;;48.00;21.40;;;8.70;99.90;;;;;;4912974;28;90809;-78
2023/12/17 06:21:33;;;;;;;49.53;22.20;;;8.70;99.90;;;;;;4896830;28;91747;-78
2023/12/17 06:23:59;;;;;;;60.13;21.13;;;8.80;99.90;;;;;;4896954;28;88148;-78
2023/12/17 06:26:25;;;;;;;52.60;21.45;;;8.80;99.90;;;;;;4898839;28;87861;-78
2023/12/17 06:28:51;;;;;;;46.22;19.92;;;8.70;99.90;;;;;;4896858;28;87358;-78
2023/12/17 06:31:17;;;;;;;49.28;19.48;;;8.70;99.90;;;;;;4897462;28;88514;-79
2023/12/17 06:33:44;;;;;;;51.92;21.33;;;8.70;99.90;;;;;;4895276;28;87876;-78
2023/12/17 06:36:10;;;;;;;55.83;21.65;;;8.60;99.90;;;;;;4893812;28;88208;-78
2023/12/17 06:38:35;;;;;;;52.20;21.00;;;8.50;99.90;;;;;;4895953;28;88105;-78
2023/12/17 06:41:02;;;;;;;45.78;19.42;;;8.50;99.90;;;;;;4902404;28;91513;-79
2023/12/17 06:43:27;;;;;;;48.28;20.08;;;8.40;99.90;;;;;;4893240;28;88469;-78
2023/12/17 06:45:56;;;;;;;46.20;19.52;;;8.40;99.90;;;;;;4896588;28;87644;-78
2023/12/17 06:48:22;;;;;;;44.95;19.73;;;8.50;99.90;;;;;;4890641;28;89429;-78
2023/12/17 06:50:47;;;;;;;44.10;18.90;;;8.50;99.90;;;;;;4893633;28;91931;-81
2023/12/17 06:53:16;;;;;;;35.20;15.75;;;8.50;99.90;;;;;;4896895;28;87912;-78
2023/12/17 06:55:42;;;;;;;39.75;17.73;;;8.30;99.90;;;;;;4894488;28;88120;-78
2023/12/17 06:58:11;;;;;;;36.30;15.95;;;8.40;99.90;;;;;;4893517;28;88494;-79
2023/12/17 07:00:37;;;;;;;33.22;14.15;;;8.30;99.90;;;;;;4891329;28;88908;-81
2023/12/17 07:03:02;;;;;;;31.95;13.60;;;8.30;99.90;;;;;;4894908;28;89791;-78
2023/12/17 07:05:28;;;;;;;29.02;13.30;;;8.00;99.90;;;;;;4897051;28;88159;-78
2023/12/17 07:07:54;;;;;;;30.77;13.45;;;7.90;99.90;;;;;;4896541;28;87632;-79
2023/12/17 07:10:21;;;;;;;33.95;14.50;;;7.70;99.90;;;;;;4897352;28;88332;-77
2023/12/17 07:12:49;;;;;;;31.05;14.95;;;7.60;99.90;;;;;;4909623;28;90896;-82
2023/12/17 07:15:15;;;;;;;35.70;15.73;;;7.50;99.90;;;;;;4910708;28;88269;-80
2023/12/17 07:17:41;;;;;;;36.38;14.30;;;7.40;99.90;;;;;;4896671;28;86799;-79
2023/12/17 07:20:10;;;;;;;32.00;14.52;;;7.30;99.90;;;;;;4898392;28;87747;-79
2023/12/17 07:22:36;;;;;;;33.65;15.80;;;7.30;99.90;;;;;;4898599;28;88081;-78
2023/12/17 07:25:02;;;;;;;32.40;14.68;;;7.10;99.90;;;;;;4896573;28;88391;-79
2023/12/17 07:27:28;;;;;;;34.67;15.10;;;7.10;99.90;;;;;;4900068;28;88998;-78
2023/12/17 07:29:54;;;;;;;35.10;15.52;;;7.10;99.90;;;;;;4900482;28;89040;-77
2023/12/17 07:32:19;;;;;;;35.80;16.45;;;7.00;99.90;;;;;;4897518;28;90877;-80
2023/12/17 07:34:45;;;;;;;37.80;15.70;;;7.00;99.90;;;;;;4895372;28;88285;-81
2023/12/17 07:37:11;;;;;;;37.25;15.88;;;7.00;99.90;;;;;;4909479;28;90631;-75
2023/12/17 07:39:37;;;;;;;39.42;17.05;;;7.00;99.90;;;;;;4887554;28;91467;-78
2023/12/17 07:42:03;;;;;;;43.85;16.52;;;6.90;99.90;;;;;;4888475;28;90848;-75
2023/12/17 07:44:30;;;;;;;39.35;16.70;;;6.90;99.90;;;;;;4906895;28;88006;-74
2023/12/17 07:46:58;;;;;;;39.47;16.55;;;6.90;99.90;;;;;;4890115;28;88094;-75
2023/12/17 07:49:24;;;;;;;35.72;15.75;;;6.90;99.90;;;;;;4905685;28;90244;-76
2023/12/17 07:51:53;;;;;;;36.97;16.27;;;6.90;99.90;;;;;;4889258;28;93047;-75
2023/12/17 07:54:19;;;;;;;37.92;15.32;;;6.90;99.90;;;;;;4895085;28;87274;-76
2023/12/17 07:56:44;;;;;;;45.83;18.00;;;6.90;99.90;;;;;;4891059;28;87694;-75
2023/12/17 07:59:10;;;;;;;36.67;15.23;;;6.90;99.90;;;;;;4890256;28;89862;-77
2023/12/17 08:01:36;;;;;;;33.58;14.55;;;6.80;99.90;;;;;;4888841;28;91088;-77
2023/12/17 08:04:02;;;;;;;38.72;15.23;;;6.80;99.90;;;;;;4889031;28;87789;-74
2023/12/17 08:06:27;;;;;;;33.33;13.52;;;6.80;99.90;;;;;;4888484;28;90083;-77
2023/12/17 08:08:54;;;;;;;35.38;14.57;;;6.80;99.90;;;;;;4890476;28;91273;-75
2023/12/17 08:11:20;;;;;;;31.38;13.10;;;6.70;99.90;;;;;;4891512;28;89196;-78
2023/12/17 08:13:46;;;;;;;36.17;13.48;;;6.70;99.90;;;;;;4889549;28;89025;-79
2023/12/17 08:16:12;;;;;;;30.40;13.27;;;6.70;99.90;;;;;;4890742;28;88179;-76
2023/12/17 08:18:37;;;;;;;33.65;14.85;;;6.70;99.90;;;;;;4896786;28;88659;-78
2023/12/17 08:21:04;;;;;;;34.00;14.57;;;6.70;99.90;;;;;;4891059;28;87574;-76
2023/12/17 08:23:30;;;;;;;30.58;14.25;;;6.70;99.90;;;;;;4893965;28;88258;-77
2023/12/17 08:25:56;;;;;;;40.05;15.10;;;6.70;99.90;;;;;;4896093;28;88038;-78
2023/12/17 08:28:25;;;;;;;37.75;15.18;;;6.70;99.90;;;;;;4896748;28;87994;-75
2023/12/17 08:30:51;;;;;;;41.95;16.05;;;6.70;99.90;;;;;;4908474;28;89769;-75
2023/12/17 08:33:17;;;;;;;36.75;15.07;;;6.70;99.90;;;;;;4894747;28;87640;-75
2023/12/17 08:35:45;;;;;;;37.25;15.05;;;6.70;99.90;;;;;;4912068;28;87698;-77
2023/12/17 08:38:11;;;;;;;35.75;15.10;;;6.70;99.90;;;;;;4917668;28;92329;-78
2023/12/17 08:40:38;;;;;;;40.17;16.23;;;6.80;99.90;;;;;;4917552;28;92221;-80
2023/12/17 08:43:04;;;;;;;34.13;15.25;;;6.80;99.90;;;;;;4916203;28;88745;-79
2023/12/17 08:45:30;;;;;;;35.83;15.80;;;6.80;99.90;;;;;;4891389;28;87901;-75
2023/12/17 08:47:56;;;;;;;37.28;17.05;;;6.80;99.90;;;;;;4898973;28;88615;-76
2023/12/17 08:50:22;;;;;;;44.05;17.40;;;6.80;99.90;;;;;;4910536;28;91294;-76
2023/12/17 08:52:48;;;;;;;45.88;18.95;;;6.80;99.90;;;;;;4895368;28;88181;-80
2023/12/17 08:55:16;;;;;;;49.35;19.80;;;6.80;99.90;;;;;;4895400;28;90231;-76
2023/12/17 08:57:42;;;;;;;49.45;18.95;;;6.80;99.90;;;;;;4897172;28;88667;-75
2023/12/17 09:00:08;;;;;;;40.35;17.80;;;6.80;99.90;;;;;;4895491;28;88149;-76
2023/12/17 09:02:34;;;;;;;45.42;18.02;;;6.80;99.90;;;;;;4897020;28;88856;-76
2023/12/17 09:05:01;;;;;;;45.72;17.92;;;6.90;99.90;;;;;;4896216;28;87506;-79
2023/12/17 09:07:27;;;;;;;48.50;19.10;;;6.90;99.90;;;;;;4896543;28;88158;-80
2023/12/17 09:09:53;;;;;;;53.63;18.02;;;6.90;99.90;;;;;;4893000;28;87741;-77
2023/12/17 09:12:18;;;;;;;46.83;18.20;;;7.00;99.90;;;;;;4896066;28;88231;-79
2023/12/17 09:14:44;;;;;;;43.55;17.23;;;7.00;99.90;;;;;;4894228;28;88690;-75
2023/12/17 09:17:10;;;;;;;45.95;17.02;;;7.00;99.90;;;;;;4895124;28;89112;-76
2023/12/17 09:19:35;;;;;;;48.70;17.38;;;7.00;99.90;;;;;;4896422;28;91438;-76
2023/12/17 09:22:01;;;;;;;47.80;17.23;;;7.00;99.90;;;;;;4893313;28;88274;-76
2023/12/17 09:24:27;;;;;;;41.20;15.80;;;7.10;99.90;;;;;;4881257;28;89977;-75
2023/12/17 09:26:53;;;;;;;41.25;15.65;;;7.10;99.90;;;;;;4891177;28;89440;-77
2023/12/17 09:29:20;;;;;;;39.42;16.25;;;7.10;99.90;;;;;;4895915;28;88495;-80
2023/12/17 09:31:46;;;;;;;34.58;17.08;;;7.10;99.90;;;;;;4897047;28;87779;-77
2023/12/17 09:34:14;;;;;;;44.83;16.33;;;7.10;99.90;;;;;;4894308;28;88201;-77
2023/12/17 09:36:41;;;;;;;38.00;14.75;;;7.20;99.90;;;;;;4894218;28;87405;-76
2023/12/17 09:39:07;;;;;;;33.22;15.52;;;7.20;99.90;;;;;;4893918;28;88151;-79
2023/12/17 09:41:33;;;;;;;39.53;15.23;;;7.20;99.90;;;;;;4892042;28;87465;-76
2023/12/17 09:43:59;;;;;;;36.28;14.35;;;7.30;99.90;;;;;;4892565;28;87456;-75
2023/12/17 09:46:25;;;;;;;41.97;14.90;;;7.40;99.90;;;;;;4908674;28;90942;-76
2023/12/17 09:48:51;;;;;;;31.20;12.98;;;7.40;99.90;;;;;;4898688;28;90100;-76
2023/12/17 09:51:18;;;;;;;36.15;12.95;;;7.40;99.90;;;;;;4906009;28;88910;-76
2023/12/17 09:53:44;;;;;;;34.25;12.48;;;7.50;99.90;;;;;;4909153;28;90191;-77
2023/12/17 09:56:13;;;;;;;29.95;11.90;;;7.50;99.90;;;;;;4894946;28;88408;-77
2023/12/17 09:58:39;;;;;;;37.75;12.68;;;7.60;99.90;;;;;;4888692;28;91370;-77
2023/12/17 10:01:04;;;;;;;32.83;12.50;;;7.60;99.90;;;;;;4891934;28;87626;-77
2023/12/17 10:03:31;;;;;;;31.52;13.57;;;7.60;99.90;;;;;;4893153;28;87821;-77
2023/12/17 10:05:57;;;;;;;30.90;12.63;;;7.70;99.90;;;;;;4906476;28;90252;-77
2023/12/17 10:08:23;;;;;;;34.95;11.73;;;7.70;99.90;;;;;;4894206;28;91997;-78
2023/12/17 10:10:49;;;;;;;31.02;10.63;;;7.80;99.90;;;;;;4893103;28;88166;-82
2023/12/17 10:13:24;;;;;;;29.40;10.13;;;7.80;99.90;;;;;;4891356;28;90370;-77
2023/12/17 10:15:51;;;;;;;28.23;11.50;;;7.80;99.90;;;;;;4887859;28;92148;-77
2023/12/17 10:18:17;;;;;;;32.63;10.93;;;7.90;99.90;;;;;;4891892;28;90323;-78
2023/12/17 10:20:44;;;;;;;30.40;9.93;;;7.90;99.90;;;;;;4889905;28;87687;-78
2023/12/17 10:23:10;;;;;;;29.35;9.85;;;8.00;99.90;;;;;;4893283;28;87958;-77
2023/12/17 10:25:38;;;;;;;27.33;8.85;;;8.00;99.90;;;;;;4894899;28;88813;-78
2023/12/17 10:28:03;;;;;;;21.20;9.13;;;8.10;99.90;;;;;;4891567;28;87419;-77
2023/12/17 10:30:31;;;;;;;23.88;9.15;;;8.10;99.90;;;;;;4887467;28;87601;-79
2023/12/17 10:32:57;;;;;;;25.40;8.93;;;8.20;99.90;;;;;;4895219;28;87007;-78
2023/12/17 10:35:25;;;;;;;21.13;7.97;;;8.20;99.90;;;;;;4893141;28;88656;-78
2023/12/17 10:38:05;;;;;;;25.70;7.68;;;8.30;99.90;;;;;;4895075;28;87782;-77
2023/12/17 10:40:40;;;;;;;14.88;5.78;;;8.40;99.90;;;;;;4890396;28;88899;-78
2023/12/17 10:43:06;;;;;;;25.52;6.07;;;8.40;99.90;;;;;;4891316;28;87422;-78
2023/12/17 10:45:35;;;;;;;18.92;6.30;;;8.50;99.90;;;;;;4889426;28;91301;-77
2023/12/17 10:48:02;;;;;;;17.95;5.38;;;8.60;99.90;;;;;;4893879;28;87798;-78
2023/12/17 10:50:28;;;;;;;19.42;5.80;;;8.60;99.90;;;;;;4893354;28;87712;-78
2023/12/17 10:52:54;;;;;;;18.92;5.85;;;8.70;99.90;;;;;;4906043;28;90767;-77
2023/12/17 10:55:22;;;;;;;21.50;6.03;;;8.80;99.90;;;;;;4891509;28;88814;-79
2023/12/17 10:58:04;;;;;;;16.23;5.85;;;8.90;99.90;;;;;;4890862;28;89801;-77
2023/12/17 11:00:33;;;;;;;12.65;4.30;;;8.90;99.90;;;;;;4888470;28;87403;-77
2023/12/17 11:03:02;;;;;;;19.98;5.50;;;9.00;99.90;;;;;;4889463;28;88068;-77
2023/12/17 11:05:28;;;;;;;17.17;4.47;;;9.10;99.90;;;;;;4908557;28;92808;-77
2023/12/17 11:07:54;;;;;;;22.83;5.20;;;9.20;99.90;;;;;;4893640;28;89797;-77
2023/12/17 11:10:20;;;;;;;18.30;4.72;;;9.20;99.90;;;;;;4908135;28;87204;-77
2023/12/17 11:12:46;;;;;;;16.02;4.22;;;9.20;99.90;;;;;;4907843;28;90132;-78
2023/12/17 11:15:12;;;;;;;21.05;5.05;;;9.30;99.90;;;;;;4893594;28;88165;-77
2023/12/17 11:17:39;;;;;;;22.17;5.20;;;9.40;99.90;;;;;;4890878;28;89072;-77
2023/12/17 11:20:05;;;;;;;19.17;5.13;;;9.50;99.90;;;;;;4888774;28;87262;-78
2023/12/17 11:22:37;;;;;;;15.57;4.38;;;9.50;99.90;;;;;;4890749;28;87558;-77
2023/12/17 11:25:08;;;;;;;18.55;4.80;;;9.50;99.90;;;;;;4896012;28;87656;-79
2023/12/17 11:27:35;;;;;;;17.10;4.70;;;9.50;99.90;;;;;;4895023;28;88601;-78
2023/12/17 11:30:00;;;;;;;17.98;4.80;;;9.60;99.90;;;;;;4909531;28;88672;-78
2023/12/17 11:32:29;;;;;;;21.33;5.10;;;9.70;99.90;;;;;;4891244;28;90879;-77
2023/12/17 11:34:56;;;;;;;14.43;4.20;;;9.70;99.90;;;;;;4890937;28;87771;-79
2023/12/17 11:37:24;;;;;;;17.90;4.97;;;9.80;99.90;;;;;;4890935;28;88166;-77
2023/12/17 11:39:52;;;;;;;15.05;4.63;;;9.90;99.90;;;;;;4889438;28;87730;-78
2023/12/17 11:42:19;;;;;;;21.35;4.93;;;9.90;99.90;;;;;;4895192;28;87777;-77
2023/12/17 11:44:49;;;;;;;15.48;3.88;;;10.00;99.90;;;;;;4889788;28;88328;-79
2023/12/17 11:49:44;;;;;;;17.92;3.78;;;10.10;99.90;;;;;;4936451;28;87958;-75
2023/12/17 11:52:15;;;;;;;19.77;5.07;;;10.10;99.90;;;;;;4946369;28;88514;-74
2023/12/17 11:54:45;;;;;;;17.33;4.65;;;10.20;99.90;;;;;;4956079;28;92669;-75
2023/12/17 11:57:37;;;;;;;18.35;4.38;;;10.30;99.90;;;;;;4952802;28;89344;-75
2023/12/17 12:00:11;;;;;;;15.35;3.80;;;10.40;99.90;;;;;;4952294;28;87662;-75
2023/12/17 12:02:36;;;;;;;18.08;4.75;;;10.40;99.90;;;;;;4956813;28;87552;-75
2023/12/17 12:05:02;;;;;;;20.08;3.92;;;10.50;99.90;;;;;;4957629;28;91591;-74
2023/12/17 12:07:28;;;;;;;17.50;4.43;;;10.40;99.90;;;;;;4956490;28;89729;-74
2023/12/17 12:10:05;;;;;;;16.45;3.90;;;10.50;99.90;;;;;;4956320;28;88097;-74
2023/12/17 12:12:33;;;;;;;15.80;3.95;;;10.50;99.90;;;;;;4953629;28;90059;-74
2023/12/17 12:14:58;;;;;;;17.00;4.55;;;10.50;99.90;;;;;;4957554;28;91418;-74
2023/12/17 12:17:43;;;;;;;19.30;4.32;;;10.50;99.90;;;;;;4956160;28;91302;-75
2023/12/17 12:20:12;;;;;;;18.35;4.20;;;10.60;99.90;;;;;;4958093;28;88484;-75
2023/12/17 12:22:41;;;;;;;22.98;3.83;;;10.70;99.90;;;;;;4958779;28;87448;-75
2023/12/17 12:25:08;;;;;;;14.13;4.18;;;10.70;99.90;;;;;;4953397;28;92346;-76
2023/12/17 12:27:34;;;;;;;17.90;3.97;;;10.90;99.90;;;;;;4957938;28;91533;-76
2023/12/17 12:29:59;;;;;;;13.13;3.78;;;11.00;99.90;;;;;;4950358;28;88212;-76
2023/12/17 12:32:32;;;;;;;18.95;4.10;;;11.10;99.90;;;;;;4950991;28;87583;-76
2023/12/17 12:34:59;;;;;;;15.15;3.47;;;11.30;99.90;;;;;;4949531;28;91011;-76
2023/12/17 12:37:32;;;;;;;17.40;4.78;;;11.40;99.90;;;;;;4956424;28;90944;-75